createdAt,value
2022-10-28T00:00:44.721Z,68.97
2022-10-28T00:05:47.617Z,69.19
2022-10-28T00:10:50.351Z,69.15
2022-10-28T00:15:54.312Z,69.20
2022-10-28T00:21:01.282Z,69.10
2022-10-28T00:26:13.562Z,69.47
2022-10-28T00:31:19.886Z,69.16
2022-10-28T00:36:24.440Z,69.36
2022-10-28T00:41:29.599Z,69.36
2022-10-28T00:46:40.747Z,69.67
2022-10-28T00:51:46.850Z,69.87
2022-10-28T00:56:54.341Z,69.88
2022-10-28T01:01:58.751Z,70.00
2022-10-28T01:07:03.285Z,70.29
2022-10-28T01:12:18.562Z,70.43
2022-10-28T01:17:36.735Z,70.69
2022-10-28T01:22:47.423Z,70.65
2022-10-28T01:28:06.475Z,70.79
2022-10-28T01:33:18.873Z,71.18
2022-10-28T01:38:31.884Z,71.53
2022-10-28T01:43:43.466Z,71.60
2022-10-28T01:48:52.306Z,71.87
2022-10-28T01:53:58.103Z,72.00
2022-10-28T01:59:02.922Z,72.13
2022-10-28T02:04:07.098Z,72.33
2022-10-28T02:09:20.716Z,72.40
2022-10-28T02:14:39.271Z,72.72
2022-10-28T02:19:52.964Z,72.83
2022-10-28T02:25:07.657Z,73.00
2022-10-28T02:30:16.334Z,73.18
2022-10-28T02:35:28.077Z,73.37
2022-10-28T02:40:33.818Z,73.46
2022-10-28T02:45:41.693Z,73.76
2022-10-28T02:51:01.656Z,73.79
2022-10-28T02:56:07.432Z,74.08
2022-10-28T03:01:10.147Z,74.14
2022-10-28T03:06:14.263Z,74.24
2022-10-28T03:11:16.896Z,74.48
2022-10-28T03:16:19.584Z,74.60
2022-10-28T03:21:23.721Z,74.70
2022-10-28T03:26:26.306Z,74.88
2022-10-28T03:31:29.013Z,74.99
2022-10-28T03:36:32.959Z,75.10
2022-10-28T03:41:35.752Z,75.18
2022-10-28T03:46:38.394Z,75.50
2022-10-28T03:51:42.406Z,75.53
2022-10-28T03:56:45.095Z,75.76
2022-10-28T04:01:47.916Z,76.10
2022-10-28T04:06:52.066Z,76.06
2022-10-28T04:11:54.733Z,76.33
2022-10-28T04:16:57.475Z,76.50
2022-10-28T04:22:01.556Z,76.55
2022-10-28T04:27:04.184Z,76.69
2022-10-28T04:32:06.893Z,76.95
2022-10-28T04:37:11.110Z,77.08
2022-10-28T04:42:13.935Z,77.27
2022-10-28T04:47:17.495Z,77.31
2022-10-28T04:52:21.780Z,77.31
2022-10-28T04:57:24.437Z,77.42
2022-10-28T05:02:27.331Z,77.34
2022-10-28T05:07:31.481Z,77.62
2022-10-28T05:12:34.156Z,77.55
2022-10-28T05:17:36.815Z,77.66
2022-10-28T05:22:47.084Z,77.72
2022-10-28T05:27:49.808Z,77.88
2022-10-28T05:32:55.205Z,77.88
2022-10-28T05:37:59.609Z,77.99
2022-10-28T05:43:03.073Z,78.05
2022-10-28T05:48:06.318Z,78.11
2022-10-28T05:53:10.318Z,78.08
2022-10-28T05:58:13.007Z,78.16
2022-10-28T06:03:15.614Z,78.37
2022-10-28T06:08:19.581Z,78.40
2022-10-28T06:13:21.048Z,78.52
2022-10-28T06:18:24.336Z,78.75
2022-10-28T06:23:28.348Z,78.80
2022-10-28T06:28:31.518Z,78.81
2022-10-28T06:33:34.490Z,78.90
2022-10-28T06:38:38.456Z,78.87
2022-10-28T06:43:41.159Z,78.99
2022-10-28T06:48:45.401Z,78.93
2022-10-28T06:53:51.234Z,79.13
2022-10-28T06:58:55.729Z,78.96
2022-10-28T07:03:58.354Z,79.08
2022-10-28T07:09:02.609Z,73.26
2022-10-28T07:14:05.282Z,70.75
2022-10-28T07:19:07.937Z,70.19
2022-10-28T07:24:11.979Z,69.93
2022-10-28T07:29:14.607Z,70.64
2022-10-28T07:34:17.429Z,70.79
2022-10-28T07:39:22.138Z,70.57
2022-10-28T07:44:24.766Z,71.25
2022-10-28T07:49:27.584Z,71.67
2022-10-28T07:54:31.918Z,71.89
2022-10-28T07:59:34.719Z,72.48
2022-10-28T08:04:37.455Z,72.64
2022-10-28T08:09:41.601Z,72.77
2022-10-28T08:14:44.346Z,73.07
2022-10-28T08:19:46.985Z,73.24
2022-10-28T08:24:50.914Z,73.01
2022-10-28T08:29:54.050Z,73.83
2022-10-28T08:34:56.885Z,74.66
2022-10-28T08:40:00.916Z,75.04
2022-10-28T08:45:19.194Z,74.64
2022-10-28T08:50:25.299Z,74.65
2022-10-28T08:55:33.217Z,74.77
2022-10-28T09:00:37.295Z,74.58
2022-10-28T09:05:41.030Z,74.71
2022-10-28T09:11:00.961Z,74.74
2022-10-28T09:16:15.157Z,74.98
2022-10-28T09:21:25.784Z,74.89
2022-10-28T09:26:42.990Z,74.38
2022-10-28T09:31:49.324Z,74.54
2022-10-28T09:36:56.053Z,74.66
2022-10-28T09:42:03.795Z,74.83
2022-10-28T09:47:15.993Z,74.96
2022-10-28T09:52:23.946Z,75.13
2022-10-28T09:57:32.167Z,75.08
2022-10-28T10:02:36.048Z,75.01
2022-10-28T10:07:45.389Z,74.83
2022-10-28T10:12:52.513Z,74.76
2022-10-28T10:17:58.929Z,74.95
2022-10-28T10:23:01.754Z,75.02
2022-10-28T10:28:16.712Z,75.01
2022-10-28T10:33:23.047Z,75.17
2022-10-28T10:38:27.167Z,75.23
2022-10-28T10:43:35.591Z,75.18
2022-10-28T10:48:38.280Z,75.12
2022-10-28T10:53:41.518Z,76.28
2022-10-28T10:58:51.606Z,76.88
2022-10-28T11:03:59.597Z,76.34
2022-10-28T11:09:04.670Z,72.51
2022-10-28T11:14:24.284Z,71.99
2022-10-28T11:19:30.614Z,72.48
2022-10-28T11:24:49.518Z,72.12
2022-10-28T11:29:54.393Z,71.18
2022-10-28T11:35:29.663Z,71.16
2022-10-28T11:40:44.221Z,71.43
2022-10-28T11:45:57.443Z,71.74
2022-10-28T11:51:11.087Z,72.04
2022-10-28T11:56:27.414Z,71.88
2022-10-28T12:01:45.647Z,72.23
2022-10-28T12:07:02.742Z,72.10
2022-10-28T12:12:18.249Z,72.63
2022-10-28T12:17:29.960Z,72.44
2022-10-28T12:22:37.009Z,72.19
2022-10-28T12:27:45.420Z,71.26
2022-10-28T12:32:53.540Z,70.39
2022-10-28T12:38:04.273Z,70.13
2022-10-28T12:43:15.107Z,69.56
2022-10-28T12:48:25.226Z,69.76
2022-10-28T12:53:36.389Z,69.82
2022-10-28T12:58:46.226Z,69.74
2022-10-28T13:03:52.591Z,69.11
2022-10-28T13:09:37.852Z,68.77
2022-10-28T13:15:02.218Z,69.02
2022-10-28T13:20:19.642Z,68.88
2022-10-28T13:25:45.369Z,68.79
2022-10-28T13:30:57.003Z,68.57
2022-10-28T13:36:16.165Z,68.28
2022-10-28T13:41:36.719Z,68.46
2022-10-28T13:47:16.042Z,68.25
2022-10-28T13:52:23.024Z,68.55
2022-10-28T13:57:30.003Z,68.49
2022-10-28T14:02:38.479Z,68.10
2022-10-28T14:07:54.451Z,68.48
2022-10-28T14:13:00.132Z,68.72
2022-10-28T14:18:16.175Z,69.02
2022-10-28T14:24:07.765Z,69.25
2022-10-28T14:29:28.464Z,69.02
2022-10-28T14:34:43.942Z,69.27
2022-10-28T14:40:02.893Z,69.79
2022-10-28T14:45:24.866Z,70.09
2022-10-28T14:50:35.414Z,70.43
2022-10-28T14:55:40.437Z,70.42
2022-10-28T15:00:50.316Z,70.89
2022-10-28T15:05:53.083Z,71.60
2022-10-28T15:10:57.161Z,71.67
2022-10-28T15:16:02.294Z,71.75
2022-10-28T15:21:12.714Z,71.96
2022-10-28T15:26:17.667Z,72.30
2022-10-28T15:31:20.290Z,72.39
2022-10-28T15:36:25.242Z,72.54
2022-10-28T15:41:49.234Z,72.54
2022-10-28T15:46:52.423Z,72.42
2022-10-28T15:52:21.443Z,72.69
2022-10-28T15:57:27.694Z,72.56
2022-10-28T16:02:53.336Z,72.27
2022-10-28T16:07:56.655Z,71.75
2022-10-28T16:13:01.500Z,73.06
2022-10-28T16:18:04.297Z,73.21
2022-10-28T16:23:12.849Z,73.39
2022-10-28T16:28:22.456Z,73.88
2022-10-28T16:33:29.931Z,73.93
2022-10-28T16:38:33.580Z,74.11
2022-10-28T16:43:38.154Z,74.13
2022-10-28T16:48:41.526Z,74.88
2022-10-28T16:53:47.092Z,74.95
2022-10-28T16:58:51.324Z,75.21
2022-10-28T17:03:54.057Z,75.79
2022-10-28T17:09:02.853Z,76.13
2022-10-28T17:14:07.930Z,76.42
2022-10-28T17:19:10.628Z,76.31
2022-10-28T17:24:13.278Z,76.51
2022-10-28T17:29:17.294Z,76.98
2022-10-28T17:34:20.144Z,77.05
2022-10-28T17:39:26.200Z,77.16
2022-10-28T17:44:30.602Z,77.19
2022-10-28T17:49:34.262Z,76.76
2022-10-28T17:54:36.967Z,76.47
2022-10-28T17:59:40.973Z,76.10
2022-10-28T18:04:43.888Z,75.85
2022-10-28T18:09:46.607Z,75.50
2022-10-28T18:14:50.567Z,74.98
2022-10-28T18:19:53.370Z,74.99
2022-10-28T18:24:56.659Z,75.02
2022-10-28T18:30:00.663Z,74.94
2022-10-28T18:35:03.348Z,74.91
2022-10-28T18:40:07.238Z,74.50
2022-10-28T18:45:11.797Z,74.37
2022-10-28T18:50:14.588Z,74.22
2022-10-28T18:55:17.473Z,74.10
2022-10-28T19:00:22.169Z,74.32
2022-10-28T19:05:24.975Z,73.67
2022-10-28T19:10:27.761Z,73.76
2022-10-28T19:15:32.080Z,73.53
2022-10-28T19:20:35.032Z,73.32
2022-10-28T19:25:37.859Z,73.07
2022-10-28T19:30:41.927Z,73.10
2022-10-28T19:35:44.731Z,72.98
2022-10-28T19:40:47.417Z,73.04
2022-10-28T19:45:51.622Z,72.37
2022-10-28T19:50:54.338Z,72.49
2022-10-28T19:55:58.541Z,72.33
2022-10-28T20:01:04.949Z,72.13
2022-10-28T20:06:09.240Z,72.01
2022-10-28T20:11:14.327Z,71.79
2022-10-28T20:16:19.021Z,71.90
2022-10-28T20:21:23.031Z,71.89
2022-10-28T20:26:28.966Z,71.68
2022-10-28T20:31:34.038Z,71.54
2022-10-28T20:36:37.924Z,71.41
2022-10-28T20:41:41.681Z,71.51
2022-10-28T20:46:47.836Z,71.44
2022-10-28T20:51:50.784Z,71.70
2022-10-28T20:56:53.396Z,71.57
2022-10-28T21:01:57.552Z,71.56
2022-10-28T21:07:00.324Z,71.17
2022-10-28T21:12:02.970Z,71.67
2022-10-28T21:17:06.945Z,71.80
2022-10-28T21:22:09.653Z,71.21
2022-10-28T21:27:12.313Z,71.45
2022-10-28T21:32:16.290Z,71.15
2022-10-28T21:37:19.419Z,71.10
2022-10-28T21:42:22.217Z,70.95
2022-10-28T21:47:27.239Z,71.14
2022-10-28T21:52:29.897Z,71.20
2022-10-28T21:57:32.594Z,71.54
2022-10-28T22:02:36.663Z,71.12
2022-10-28T22:07:39.437Z,71.23
2022-10-28T22:12:42.091Z,71.00
2022-10-28T22:17:46.052Z,71.12
2022-10-28T22:22:48.735Z,71.02
2022-10-28T22:27:51.360Z,70.79
2022-10-28T22:32:55.716Z,70.84
2022-10-28T22:37:58.763Z,71.04
2022-10-28T22:43:01.518Z,70.76
2022-10-28T22:48:05.717Z,70.95
2022-10-28T22:53:08.381Z,70.51
2022-10-28T22:58:11.626Z,71.34
2022-10-28T23:03:16.045Z,70.76
2022-10-28T23:08:18.780Z,70.58
2022-10-28T23:13:21.400Z,70.57
2022-10-28T23:18:28.515Z,70.77
2022-10-28T23:23:31.179Z,71.08
2022-10-28T23:28:34.175Z,70.99
2022-10-28T23:33:38.171Z,70.73
2022-10-28T23:38:41.165Z,70.48
2022-10-28T23:43:43.859Z,70.54
2022-10-28T23:48:47.843Z,70.91
2022-10-28T23:53:50.550Z,70.69
2022-10-28T23:58:53.534Z,70.53
